Time;durP1;ratioP1;P1;durP2;ratioP2;P2;SDS_P1;SDS_P2;PMS_P1;PMS_P2;Temp;Humidity;BMP_temperature;BMP_pressure;BME280_temperature;BME280_humidity;BME280_pressure;Samples;Min_cycle;Max_cycle;Signal;HPM_P1;HPM_P2
2022/04/18 00:02:05;;;;;;;;;;;;;;;16.71;44.96;100377.03;5076014;28;1901;-59
2022/04/18 00:04:30;;;;;;;;;;;;;;;16.69;44.65;100371.03;5076214;28;910;-59
2022/04/18 00:06:55;;;;;;;;;;;;;;;16.60;44.04;100378.19;5076073;28;873;-59
2022/04/18 00:09:21;;;;;;;;;;;;;;;16.34;43.25;100375.59;5076475;28;838;-59
2022/04/18 00:11:46;;;;;;;;;;;;;;;16.32;42.89;100374.22;5076254;28;911;-59
2022/04/18 00:14:12;;;;;;;;;;;;;;;16.55;44.82;100370.81;5072743;28;880;-59
2022/04/18 00:16:37;;;;;;;;;;;;;;;16.83;45.14;100368.47;5075481;28;1143;-59
2022/04/18 00:19:03;;;;;;;;;;;;;;;17.00;45.39;100354.34;5076046;28;886;-59
2022/04/18 00:21:28;;;;;;;;;;;;;;;16.94;45.19;100360.97;5069753;28;1905;-59
2022/04/18 00:23:54;;;;;;;;;;;;;;;16.76;45.12;100367.97;5076378;28;774;-59
2022/04/18 00:26:19;;;;;;;;;;;;;;;16.63;44.18;100363.09;5070287;28;867;-59
2022/04/18 00:28:44;;;;;;;;;;;;;;;16.49;43.70;100365.63;5076379;28;805;-59
2022/04/18 00:31:10;;;;;;;;;;;;;;;16.25;42.47;100358.06;5075868;28;758;-59
2022/04/18 00:33:35;;;;;;;;;;;;;;;16.51;44.16;100364.25;5058005;28;1322;-59
2022/04/18 00:36:01;;;;;;;;;;;;;;;17.17;45.29;100355.88;5076000;28;829;-59
2022/04/18 00:38:28;;;;;;;;;;;;;;;17.74;45.49;100348.72;5054943;28;2259;-59
2022/04/18 00:40:54;;;;;;;;;;;;;;;17.78;45.49;100348.94;5076054;28;821;-59
2022/04/18 00:43:23;;;;;;;;;;;;;;;17.33;45.74;100346.38;5058212;28;1981;-59
2022/04/18 00:45:49;;;;;;;;;;;;;;;17.10;45.47;100340.53;5054165;28;1467;-59
2022/04/18 00:48:14;;;;;;;;;;;;;;;16.88;44.92;100334.63;5075892;28;742;-59
2022/04/18 00:50:40;;;;;;;;;;;;;;;16.61;43.99;100333.19;5055604;28;1390;-59
2022/04/18 00:53:06;;;;;;;;;;;;;;;16.68;44.18;100324.63;5072904;28;765;-59
2022/04/18 00:55:32;;;;;;;;;;;;;;;16.96;45.57;100336.81;5058240;28;789;-59
2022/04/18 00:57:57;;;;;;;;;;;;;;;16.98;45.59;100325.53;5057654;28;1210;-59
2022/04/18 01:00:22;;;;;;;;;;;;;;;16.80;45.65;100341.53;5073546;28;824;-59
2022/04/18 01:02:48;;;;;;;;;;;;;;;16.75;44.93;100325.13;5057319;28;1898;-59
2022/04/18 01:05:14;;;;;;;;;;;;;;;16.63;44.23;100319.97;5074022;28;872;-59
2022/04/18 01:07:39;;;;;;;;;;;;;;;16.39;43.68;100312.44;5075767;28;774;-60
2022/04/18 01:10:05;;;;;;;;;;;;;;;16.53;43.94;100309.88;5075328;28;730;-59
2022/04/18 01:12:30;;;;;;;;;;;;;;;16.95;46.06;100318.69;5061692;28;1115;-59
2022/04/18 01:15:16;;;;;;;;;;;;;;;17.38;45.83;100307.03;5044110;28;1323;-59
2022/04/18 01:18:11;;;;;;;;;;;;;;;17.36;46.08;100312.84;5005048;28;984;-59
2022/04/18 01:20:55;;;;;;;;;;;;;;;17.08;45.90;100308.94;5061471;28;1297;-59
2022/04/18 01:23:27;;;;;;;;;;;;;;;16.87;44.99;100317.34;5079364;28;1972;-60
2022/04/18 01:28:58;;;;;;;;;;;;;;;16.52;43.84;100302.78;5054324;28;1226;-59
2022/04/18 01:31:27;;;;;;;;;;;;;;;16.79;45.18;100314.38;5060207;28;1138;-59
2022/04/18 01:33:53;;;;;;;;;;;;;;;16.91;45.74;100314.88;5031442;28;1249;-59
2022/04/18 01:36:19;;;;;;;;;;;;;;;16.80;45.17;100313.28;5061008;28;1115;-59
2022/04/18 01:38:45;;;;;;;;;;;;;;;16.68;44.59;100310.91;5061225;28;1545;-60
2022/04/18 01:41:11;;;;;;;;;;;;;;;16.57;43.74;100304.66;5060813;28;1905;-59
2022/04/18 01:43:36;;;;;;;;;;;;;;;16.33;43.22;100285.34;5056721;28;1273;-59
2022/04/18 01:46:02;;;;;;;;;;;;;;;16.54;44.61;100297.81;5057904;28;1108;-59
2022/04/18 01:48:28;;;;;;;;;;;;;;;17.04;45.56;100297.75;5071276;28;1147;-60
2022/04/18 01:50:54;;;;;;;;;;;;;;;17.36;45.99;100287.25;5078867;28;814;-59
2022/04/18 01:53:20;;;;;;;;;;;;;;;17.43;45.96;100288.56;5060575;28;1321;-59
2022/04/18 01:55:46;;;;;;;;;;;;;;;17.23;45.89;100294.25;5053856;28;773;-60
2022/04/18 01:58:12;;;;;;;;;;;;;;;16.99;45.48;100284.03;5060512;28;1688;-59
2022/04/18 02:00:38;;;;;;;;;;;;;;;16.84;44.81;100290.44;5054294;28;1340;-60
2022/04/18 02:03:04;;;;;;;;;;;;;;;16.59;43.29;100278.56;5059655;28;1918;-59
2022/04/18 02:05:29;;;;;;;;;;;;;;;16.62;43.85;100277.19;5059903;28;769;-59
2022/04/18 02:07:55;;;;;;;;;;;;;;;16.85;45.28;100285.78;5075646;28;793;-59
2022/04/18 02:10:20;;;;;;;;;;;;;;;17.04;45.62;100286.75;5060113;28;1311;-59
2022/04/18 02:12:46;;;;;;;;;;;;;;;16.96;45.53;100273.63;5060535;28;1145;-59
2022/04/18 02:15:12;;;;;;;;;;;;;;;16.80;44.92;100264.66;5059364;28;1746;-59
2022/04/18 02:18:00;;;;;;;;;;;;;;;16.64;44.16;100258.50;5063322;28;1072;-59
2022/04/18 02:20:26;;;;;;;;;;;;;;;16.56;43.84;100259.09;5054789;28;2245;-59
2022/04/18 02:22:51;;;;;;;;;;;;;;;16.37;42.82;100278.19;5059334;28;1979;-59
2022/04/18 02:25:17;;;;;;;;;;;;;;;16.77;45.22;100271.56;5077853;28;842;-59
2022/04/18 02:27:43;;;;;;;;;;;;;;;16.71;44.86;100272.69;5059756;28;1474;-59
2022/04/18 02:30:09;;;;;;;;;;;;;;;16.62;44.70;100268.94;5075775;28;879;-59
2022/04/18 02:32:48;;;;;;;;;;;;;;;16.53;44.09;100262.41;5041916;28;1586;-59
2022/04/18 02:35:14;;;;;;;;;;;;;;;16.48;43.77;100263.28;5053438;28;774;-59
2022/04/18 02:37:40;;;;;;;;;;;;;;;16.51;43.95;100251.72;5053317;28;1416;-59
2022/04/18 02:40:06;;;;;;;;;;;;;;;16.63;44.58;100254.09;5059675;28;1103;-59
2022/04/18 02:42:32;;;;;;;;;;;;;;;16.88;45.21;100260.50;5078238;28;1902;-59
2022/04/18 02:44:57;;;;;;;;;;;;;;;17.04;45.51;100259.28;5076811;28;857;-60
2022/04/18 02:47:43;;;;;;;;;;;;;;;16.94;45.24;100251.13;5072024;28;1249;-60
2022/04/18 02:50:08;;;;;;;;;;;;;;;16.73;44.86;100256.78;5059523;28;1311;-60
2022/04/18 02:52:34;;;;;;;;;;;;;;;16.57;44.24;100242.34;5077844;28;793;-58
2022/04/18 02:55:00;;;;;;;;;;;;;;;16.48;43.69;100254.22;5042478;28;1355;-60
2022/04/18 02:57:25;;;;;;;;;;;;;;;16.32;43.16;100242.53;5059385;28;1380;-60
2022/04/18 02:59:51;;;;;;;;;;;;;;;16.58;44.73;100251.41;5052175;28;1928;-59
2022/04/18 03:02:17;;;;;;;;;;;;;;;17.11;45.29;100239.72;5059034;28;1909;-59
2022/04/18 03:04:43;;;;;;;;;;;;;;;16.77;44.77;100248.78;5059171;28;1386;-60
2022/04/18 03:07:09;;;;;;;;;;;;;;;16.53;44.15;100240.47;5059562;28;1170;-60
2022/04/18 03:09:35;;;;;;;;;;;;;;;16.45;43.88;100246.56;5059500;28;1205;-58
2022/04/18 03:12:02;;;;;;;;;;;;;;;16.36;43.26;100247.16;5076872;28;738;-58
2022/04/18 03:14:28;;;;;;;;;;;;;;;16.42;43.77;100245.19;5058979;28;1097;-58
2022/04/18 03:16:57;;;;;;;;;;;;;;;16.52;44.28;100247.03;5042529;28;1194;-58
2022/04/18 03:19:22;;;;;;;;;;;;;;;16.63;44.72;100247.78;5039300;28;1142;-58
2022/04/18 03:21:53;;;;;;;;;;;;;;;16.71;45.05;100234.28;5023235;28;1973;-58
2022/04/18 03:24:19;;;;;;;;;;;;;;;16.70;45.16;100242.78;5033953;28;1138;-58
2022/04/18 03:27:06;;;;;;;;;;;;;;;16.55;44.59;100233.59;5028732;28;1402;-58
2022/04/18 03:29:35;;;;;;;;;;;;;;;16.40;44.14;100242.75;5038479;28;858;-58
2022/04/18 03:32:01;;;;;;;;;;;;;;;16.24;43.18;100247.53;5034612;28;1124;-58
2022/04/18 03:34:30;;;;;;;;;;;;;;;16.21;43.30;100250.81;5037683;28;1289;-58
2022/04/18 03:39:56;;;;;;;;;;;;;;;16.90;44.94;100266.53;5038173;28;1145;-58
2022/04/18 03:42:31;;;;;;;;;;;;;;;16.62;44.52;100263.47;5038501;28;1973;-58
2022/04/18 03:45:04;;;;;;;;;;;;;;;16.43;44.14;100261.38;5031455;28;1266;-58
2022/04/18 03:47:30;;;;;;;;;;;;;;;16.25;43.41;100260.13;5056420;28;943;-59
2022/04/18 03:49:56;;;;;;;;;;;;;;;16.65;45.69;100271.13;5032493;28;1103;-59
2022/04/18 03:52:22;;;;;;;;;;;;;;;17.33;44.64;100261.19;5052274;28;1409;-62
2022/04/18 03:54:48;;;;;;;;;;;;;;;16.91;45.21;100259.94;5054401;28;1339;-58
2022/04/18 03:57:19;;;;;;;;;;;;;;;16.67;44.59;100255.16;5032082;28;1120;-61
2022/04/18 04:00:08;;;;;;;;;;;;;;;16.77;45.39;100257.84;5033195;28;1609;-61
2022/04/18 04:02:39;;;;;;;;;;;;;;;17.57;45.52;100250.22;5047466;28;1914;-61
2022/04/18 04:05:06;;;;;;;;;;;;;;;17.84;45.29;100247.94;5038643;28;1131;-59
2022/04/18 04:07:33;;;;;;;;;;;;;;;17.35;45.41;100255.38;5038468;28;1253;-59
2022/04/18 04:10:18;;;;;;;;;;;;;;;17.04;45.08;100258.44;5054525;28;1177;-59
2022/04/18 04:12:45;;;;;;;;;;;;;;;17.12;45.30;100252.31;5037167;28;1294;-59
2022/04/18 04:15:28;;;;;;;;;;;;;;;17.04;45.17;100262.03;5051329;28;800;-59
2022/04/18 04:18:02;;;;;;;;;;;;;;;16.98;45.25;100260.41;5038126;28;1399;-61
2022/04/18 04:20:27;;;;;;;;;;;;;;;16.84;44.56;100240.22;5038584;28;1253;-61
2022/04/18 04:22:53;;;;;;;;;;;;;;;16.74;44.28;100255.66;5055715;28;1909;-60
2022/04/18 04:25:47;;;;;;;;;;;;;;;16.49;43.24;100250.38;4985012;28;1391;-61
2022/04/18 04:28:17;;;;;;;;;;;;;;;16.54;43.38;100255.84;5035683;28;1349;-61
2022/04/18 04:30:44;;;;;;;;;;;;;;;16.79;44.65;100252.06;5034942;28;1297;-59
2022/04/18 04:33:09;;;;;;;;;;;;;;;16.92;45.28;100261.59;5038221;28;1105;-60
2022/04/18 04:35:35;;;;;;;;;;;;;;;16.89;45.29;100267.66;5037746;28;1198;-59
2022/04/18 04:38:05;;;;;;;;;;;;;;;16.75;44.88;100265.53;5038567;28;1163;-60
2022/04/18 04:40:57;;;;;;;;;;;;;;;16.64;44.31;100274.16;5047997;28;1516;-61
2022/04/18 04:43:45;;;;;;;;;;;;;;;16.38;43.95;100274.31;5042642;28;1111;-60
2022/04/18 04:46:14;;;;;;;;;;;;;;;16.80;45.29;100281.13;5040145;28;1143;-60
2022/04/18 04:48:47;;;;;;;;;;;;;;;17.18;45.69;100278.66;5040954;28;1678;-63
2022/04/18 04:51:16;;;;;;;;;;;;;;;17.41;45.58;100274.28;5034302;28;1163;-61
2022/04/18 04:53:41;;;;;;;;;;;;;;;17.25;46.06;100251.66;5052885;28;861;-61
2022/04/18 04:56:10;;;;;;;;;;;;;;;17.00;45.67;100249.97;5040781;28;1237;-60
2022/04/18 04:58:37;;;;;;;;;;;;;;;16.83;44.67;100263.28;5041626;28;1140;-60
2022/04/18 05:01:07;;;;;;;;;;;;;;;16.55;43.42;100262.94;5054737;28;939;-58
2022/04/18 05:03:41;;;;;;;;;;;;;;;16.37;42.85;100261.72;5059673;28;1909;-57
2022/04/18 05:06:08;;;;;;;;;;;;;;;16.48;43.53;100270.69;5041474;28;1457;-59
2022/04/18 05:08:38;;;;;;;;;;;;;;;16.73;45.49;100269.66;5041725;28;1080;-61
2022/04/18 05:11:05;;;;;;;;;;;;;;;16.94;45.73;100275.84;5041613;28;1230;-60
2022/04/18 05:13:51;;;;;;;;;;;;;;;17.00;45.97;100280.19;5054260;28;1174;-60
2022/04/18 05:16:21;;;;;;;;;;;;;;;16.75;45.47;100284.75;5040705;28;1203;-60
2022/04/18 05:19:19;;;;;;;;;;;;;;;16.66;44.89;100297.47;5013715;28;1103;-61
2022/04/18 05:21:46;;;;;;;;;;;;;;;16.40;43.31;100294.06;5041526;28;1910;-58
2022/04/18 05:24:18;;;;;;;;;;;;;;;16.47;44.02;100293.75;5041115;28;1398;-59
2022/04/18 05:26:44;;;;;;;;;;;;;;;17.15;45.70;100301.19;5041250;28;1244;-59
2022/04/18 05:29:09;;;;;;;;;;;;;;;17.83;45.76;100306.81;5041072;28;1193;-58
2022/04/18 05:31:35;;;;;;;;;;;;;;;17.91;45.48;100307.03;5054942;28;1101;-59
2022/04/18 05:34:01;;;;;;;;;;;;;;;17.50;46.07;100295.63;5058299;28;827;-62
2022/04/18 05:36:33;;;;;;;;;;;;;;;17.22;45.65;100309.09;5041497;28;1276;-63
2022/04/18 05:39:00;;;;;;;;;;;;;;;17.54;46.57;100311.25;5052373;28;836;-59
2022/04/18 05:41:32;;;;;;;;;;;;;;;18.34;45.97;100324.63;5035210;28;1902;-59
2022/04/18 05:43:58;;;;;;;;;;;;;;;18.06;46.07;100325.28;5040081;28;832;-61
2022/04/18 05:46:30;;;;;;;;;;;;;;;17.74;47.40;100332.22;5028598;28;1255;-59
2022/04/18 05:48:57;;;;;;;;;;;;;;;18.15;46.55;100332.88;5041181;28;1337;-59
2022/04/18 05:51:23;;;;;;;;;;;;;;;18.03;46.70;100328.59;5059039;28;796;-60
2022/04/18 05:53:48;;;;;;;;;;;;;;;17.85;46.60;100330.19;5040316;28;1271;-59
2022/04/18 05:56:20;;;;;;;;;;;;;;;17.54;45.91;100325.00;5052197;28;615;-60
2022/04/18 05:59:05;;;;;;;;;;;;;;;17.17;44.78;100336.66;5035935;28;1138;-61
2022/04/18 06:01:53;;;;;;;;;;;;;;;16.80;42.63;100341.53;5036364;28;1910;-60
2022/04/18 06:04:30;;;;;;;;;;;;;;;16.51;42.04;100339.56;5021440;28;1127;-60
2022/04/18 06:07:16;;;;;;;;;;;;;;;16.49;41.81;100341.75;5040806;28;1095;-59
2022/04/18 06:09:43;;;;;;;;;;;;;;;16.51;42.49;100342.31;5040675;28;1229;-61
2022/04/18 06:12:09;;;;;;;;;;;;;;;16.69;43.95;100354.53;5036041;28;1346;-61
2022/04/18 06:14:38;;;;;;;;;;;;;;;17.23;46.78;100357.47;5040090;28;1405;-60
2022/04/18 06:17:05;;;;;;;;;;;;;;;17.59;47.35;100360.69;5034004;28;1415;-60
2022/04/18 06:19:30;;;;;;;;;;;;;;;17.75;47.39;100344.88;5060326;28;1397;-61
2022/04/18 06:21:58;;;;;;;;;;;;;;;17.69;47.68;100359.75;5059252;28;1914;-59
2022/04/18 06:24:24;;;;;;;;;;;;;;;17.55;47.59;100353.31;5050106;28;1266;-62
2022/04/18 06:26:55;;;;;;;;;;;;;;;17.48;47.57;100355.59;5070625;28;1251;-63
2022/04/18 06:29:22;;;;;;;;;;;;;;;17.38;47.25;100356.50;5058204;28;1223;-59
2022/04/18 06:31:53;;;;;;;;;;;;;;;17.33;47.24;100360.09;5058730;28;993;-60
2022/04/18 06:34:20;;;;;;;;;;;;;;;17.34;46.89;100361.75;5060003;28;1150;-59
2022/04/18 06:36:48;;;;;;;;;;;;;;;17.31;46.85;100356.84;5056426;28;1966;-59
2022/04/18 06:39:22;;;;;;;;;;;;;;;17.27;46.79;100362.09;5078144;28;811;-57
2022/04/18 06:41:56;;;;;;;;;;;;;;;17.09;46.33;100365.53;5059596;28;1905;-61
2022/04/18 06:44:24;;;;;;;;;;;;;;;17.09;46.08;100368.28;5059908;28;1103;-61
2022/04/18 06:46:51;;;;;;;;;;;;;;;17.12;45.82;100372.41;5054405;28;840;-63
2022/04/18 06:49:37;;;;;;;;;;;;;;;17.09;46.22;100377.34;5064663;28;1013;-63
2022/04/18 06:52:38;;;;;;;;;;;;;;;17.10;45.70;100368.00;5043798;28;1097;-62
2022/04/18 06:55:22;;;;;;;;;;;;;;;17.09;45.87;100368.28;5070860;28;746;-64
2022/04/18 06:57:48;;;;;;;;;;;;;;;17.02;45.81;100368.59;5077774;28;836;-61
2022/04/18 07:00:14;;;;;;;;;;;;;;;17.03;45.77;100372.19;5056097;28;1134;-62
2022/04/18 07:02:46;;;;;;;;;;;;;;;17.05;46.03;100373.53;5056412;28;1918;-60
2022/04/18 07:05:11;;;;;;;;;;;;;;;17.01;45.86;100375.22;5039954;28;1167;-59
2022/04/18 07:07:37;;;;;;;;;;;;;;;16.99;46.22;100376.63;5077080;28;929;-61
2022/04/18 07:10:04;;;;;;;;;;;;;;;17.03;46.04;100361.22;5057945;28;1368;-62
2022/04/18 07:12:30;;;;;;;;;;;;;;;17.01;46.02;100361.50;5057097;28;1249;-61
2022/04/18 07:14:58;;;;;;;;;;;;;;;17.01;46.09;100364.25;5069230;28;829;-61
2022/04/18 07:17:24;;;;;;;;;;;;;;;17.07;45.98;100365.03;5040955;28;1091;-61
2022/04/18 07:19:51;;;;;;;;;;;;;;;16.99;45.77;100360.13;5038849;28;1261;-62
2022/04/18 07:22:19;;;;;;;;;;;;;;;16.97;45.92;100365.91;5032566;28;1926;-61
2022/04/18 07:24:47;;;;;;;;;;;;;;;16.99;45.91;100365.63;5038722;28;1194;-62
2022/04/18 07:27:14;;;;;;;;;;;;;;;17.02;46.00;100363.13;5054884;28;961;-59
2022/04/18 07:29:49;;;;;;;;;;;;;;;17.27;46.19;100364.03;5039133;28;1218;-63
2022/04/18 07:32:15;;;;;;;;;;;;;;;17.49;46.36;100368.22;5032326;28;1318;-62
2022/04/18 07:34:40;;;;;;;;;;;;;;;17.65;46.59;100369.69;5038885;28;1276;-61
2022/04/18 07:37:13;;;;;;;;;;;;;;;17.86;46.44;100350.25;5019388;28;928;-60
2022/04/18 07:39:39;;;;;;;;;;;;;;;17.92;46.51;100349.09;5019426;28;1540;-61
2022/04/18 07:42:04;;;;;;;;;;;;;;;17.97;46.74;100351.78;5056349;28;1977;-60
2022/04/18 07:44:31;;;;;;;;;;;;;;;18.05;46.56;100348.41;5038734;28;1227;-62
2022/04/18 07:46:58;;;;;;;;;;;;;;;18.13;46.51;100349.66;5033986;28;1103;-59
2022/04/18 07:49:29;;;;;;;;;;;;;;;18.27;46.56;100355.25;5038802;28;1366;-62
2022/04/18 07:51:55;;;;;;;;;;;;;;;18.39;46.27;100347.41;5038786;28;1106;-61
2022/04/18 07:54:39;;;;;;;;;;;;;;;18.17;46.97;100341.66;5051554;28;618;-59
2022/04/18 07:57:05;;;;;;;;;;;;;;;17.87;46.39;100346.38;5038288;28;1361;-61
2022/04/18 07:59:38;;;;;;;;;;;;;;;17.53;45.36;100347.28;5038857;28;1200;-61
2022/04/18 08:02:08;;;;;;;;;;;;;;;17.23;43.64;100344.53;5034844;28;1913;-62
2022/04/18 08:05:07;;;;;;;;;;;;;;;16.88;42.47;100348.38;5042274;28;1154;-60
2022/04/18 08:07:47;;;;;;;;;;;;;;;16.63;41.49;100346.63;5031904;28;1348;-60
2022/04/18 08:10:14;;;;;;;;;;;;;;;16.53;41.57;100350.25;5038239;28;1311;-60
2022/04/18 08:12:39;;;;;;;;;;;;;;;16.59;42.23;100346.34;5038124;28;1202;-60
2022/04/18 08:15:23;;;;;;;;;;;;;;;16.69;43.40;100349.06;5054553;28;821;-60
2022/04/18 08:17:49;;;;;;;;;;;;;;;16.79;44.18;100347.31;5037206;28;1099;-61
2022/04/18 08:20:23;;;;;;;;;;;;;;;16.83;45.20;100351.97;5037998;28;1245;-60
2022/04/18 08:22:49;;;;;;;;;;;;;;;17.00;45.95;100351.59;5037442;28;1906;-62
2022/04/18 08:25:34;;;;;;;;;;;;;;;17.22;47.09;100355.81;5054540;28;1156;-60
2022/04/18 08:28:18;;;;;;;;;;;;;;;17.47;48.01;100365.75;5050802;28;708;-61
2022/04/18 08:30:44;;;;;;;;;;;;;;;17.63;47.99;100369.19;5048795;28;968;-62
2022/04/18 08:33:25;;;;;;;;;;;;;;;17.87;47.67;100363.69;5038275;28;1367;-62
2022/04/18 08:35:50;;;;;;;;;;;;;;;18.07;47.76;100356.34;5038279;28;1088;-62
2022/04/18 08:38:17;;;;;;;;;;;;;;;18.23;47.45;100367.97;5038243;28;1286;-62
2022/04/18 08:41:05;;;;;;;;;;;;;;;18.27;47.14;100371.78;5055774;28;1001;-62
2022/04/18 08:43:31;;;;;;;;;;;;;;;18.16;47.10;100375.78;5037606;28;1975;-63
2022/04/18 08:45:57;;;;;;;;;;;;;;;17.82;46.75;100366.50;5032729;28;872;-62
2022/04/18 08:53:51;;;;;;;;;;;;;;;16.87;43.21;100379.69;5033204;28;1322;-61
2022/04/18 08:56:17;;;;;;;;;;;;;;;16.74;42.18;100389.38;5052531;28;810;-62
2022/04/18 08:58:42;;;;;;;;;;;;;;;16.71;41.92;100390.75;5037368;28;1280;-62
2022/04/18 09:01:13;;;;;;;;;;;;;;;16.71;43.17;100388.00;5037518;28;1284;-63
2022/04/18 09:03:41;;;;;;;;;;;;;;;17.02;45.45;100389.78;5056221;28;1906;-63
2022/04/18 09:06:10;;;;;;;;;;;;;;;17.51;47.78;100379.75;5037334;28;853;-64
2022/04/18 09:08:43;;;;;;;;;;;;;;;18.13;48.02;100388.19;5037067;28;1674;-63
2022/04/18 09:11:10;;;;;;;;;;;;;;;18.42;47.41;100390.84;5033874;28;1022;-64
2022/04/18 09:13:40;;;;;;;;;;;;;;;18.11;47.53;100391.22;5037196;28;1196;-60
2022/04/18 09:16:06;;;;;;;;;;;;;;;17.75;47.16;100394.38;5031380;28;1265;-60
2022/04/18 09:18:31;;;;;;;;;;;;;;;17.41;46.18;100389.72;5037470;28;1177;-59
2022/04/18 09:21:04;;;;;;;;;;;;;;;17.14;44.24;100397.63;5037712;28;1265;-61
2022/04/18 09:23:34;;;;;;;;;;;;;;;16.94;43.08;100382.94;5053661;28;1980;-60
2022/04/18 09:26:35;;;;;;;;;;;;;;;16.54;41.53;100398.56;5035198;28;1317;-60
2022/04/18 09:29:05;;;;;;;;;;;;;;;16.51;41.27;100399.09;5036733;28;1284;-60
2022/04/18 09:31:37;;;;;;;;;;;;;;;16.71;43.15;100401.75;5036367;28;1166;-60
2022/04/18 09:34:04;;;;;;;;;;;;;;;17.07;45.69;100395.25;5057775;28;941;-60
2022/04/18 09:36:31;;;;;;;;;;;;;;;17.58;48.30;100421.47;5034715;28;1138;-60
2022/04/18 09:38:57;;;;;;;;;;;;;;;18.17;48.11;100404.94;5041573;28;1122;-60
2022/04/18 09:41:29;;;;;;;;;;;;;;;18.68;47.20;100420.81;5059277;28;804;-61
2022/04/18 09:43:57;;;;;;;;;;;;;;;18.56;47.11;100414.91;5041289;28;1201;-62
2022/04/18 09:46:30;;;;;;;;;;;;;;;17.35;49.78;100417.53;5035826;28;1467;-62
2022/04/18 09:49:09;;;;;;;;;;;;;;;17.39;47.39;100413.09;5040436;28;1359;-63
2022/04/18 09:51:42;;;;;;;;;;;;;;;17.20;45.69;100413.00;5041266;28;1192;-61
2022/04/18 09:54:12;;;;;;;;;;;;;;;16.92;43.54;100410.69;5040512;28;1372;-63
2022/04/18 09:56:40;;;;;;;;;;;;;;;16.70;42.67;100416.56;5058343;28;962;-62
2022/04/18 09:59:05;;;;;;;;;;;;;;;16.53;41.75;100419.69;5040793;28;1228;-59
2022/04/18 10:01:32;;;;;;;;;;;;;;;16.41;41.13;100425.50;5054065;28;1898;-59
2022/04/18 10:03:57;;;;;;;;;;;;;;;16.52;42.71;100428.19;5040335;28;961;-61
2022/04/18 10:06:24;;;;;;;;;;;;;;;17.08;46.90;100435.31;5041058;28;758;-59
2022/04/18 10:08:50;;;;;;;;;;;;;;;17.61;48.62;100427.22;5040224;28;1001;-61
2022/04/18 10:11:16;;;;;;;;;;;;;;;17.81;48.53;100435.53;5058382;28;886;-59
2022/04/18 10:13:41;;;;;;;;;;;;;;;17.72;48.56;100441.66;5057198;28;948;-61
2022/04/18 10:16:07;;;;;;;;;;;;;;;17.68;48.41;100442.53;5060648;28;1285;-65
2022/04/18 10:18:39;;;;;;;;;;;;;;;17.58;48.02;100451.72;5078156;28;784;-61
2022/04/18 10:21:07;;;;;;;;;;;;;;;17.47;47.83;100452.91;5078842;28;854;-62
2022/04/18 10:23:42;;;;;;;;;;;;;;;17.39;47.56;100446.91;5077235;28;1973;-59
2022/04/18 10:26:17;;;;;;;;;;;;;;;17.24;46.95;100445.09;5074839;28;981;-63
2022/04/18 10:28:43;;;;;;;;;;;;;;;17.15;46.22;100448.75;5077081;28;754;-65
2022/04/18 10:31:19;;;;;;;;;;;;;;;17.11;45.87;100451.25;5053398;28;1087;-61
2022/04/18 10:33:44;;;;;;;;;;;;;;;17.12;46.43;100454.81;5059543;28;884;-59
2022/04/18 10:36:10;;;;;;;;;;;;;;;17.07;45.71;100459.22;5059894;28;857;-58
2022/04/18 10:38:36;;;;;;;;;;;;;;;17.02;45.71;100458.44;5071401;28;866;-61
2022/04/18 10:41:14;;;;;;;;;;;;;;;17.12;46.37;100457.56;5075406;28;750;-59
2022/04/18 10:44:00;;;;;;;;;;;;;;;17.14;46.18;100461.66;5077157;28;1985;-61
2022/04/18 10:46:26;;;;;;;;;;;;;;;17.12;46.44;100472.09;5051361;28;1375;-57
2022/04/18 10:48:58;;;;;;;;;;;;;;;17.13;46.41;100475.69;5059342;28;925;-61
2022/04/18 10:51:47;;;;;;;;;;;;;;;17.17;46.25;100471.28;5074425;28;808;-58
2022/04/18 10:54:15;;;;;;;;;;;;;;;17.12;46.41;100474.03;5067170;28;1203;-58
2022/04/18 10:57:13;;;;;;;;;;;;;;;17.04;46.36;100480.94;5077532;28;825;-59
2022/04/18 10:59:41;;;;;;;;;;;;;;;17.00;45.88;100477.97;5051470;28;1175;-58
2022/04/18 11:02:06;;;;;;;;;;;;;;;16.94;45.94;100468.09;5075434;28;1980;-56
2022/04/18 11:04:38;;;;;;;;;;;;;;;17.05;45.91;100471.59;5076896;28;939;-57
2022/04/18 11:07:04;;;;;;;;;;;;;;;17.03;45.73;100482.88;5077256;28;846;-58
2022/04/18 11:09:33;;;;;;;;;;;;;;;16.96;45.88;100487.03;5077548;28;777;-59
2022/04/18 11:12:04;;;;;;;;;;;;;;;16.94;45.61;100479.06;5077618;28;769;-60
2022/04/18 11:14:31;;;;;;;;;;;;;;;16.89;45.47;100476.38;5077045;28;841;-60
2022/04/18 11:16:58;;;;;;;;;;;;;;;16.96;45.68;100482.38;5076113;28;1020;-60
2022/04/18 11:19:24;;;;;;;;;;;;;;;16.98;46.04;100482.91;5076962;28;975;-60
2022/04/18 11:24:37;;;;;;;;;;;;;;;17.06;46.06;100490.53;5077181;28;749;-61
2022/04/18 11:27:03;;;;;;;;;;;;;;;17.10;46.35;100483.38;5076475;28;1135;-61
2022/04/18 11:29:31;;;;;;;;;;;;;;;17.16;46.83;100491.59;5076504;28;825;-60
2022/04/18 11:31:56;;;;;;;;;;;;;;;17.24;46.55;100489.06;5072955;28;1002;-60
2022/04/18 11:34:25;;;;;;;;;;;;;;;17.20;46.51;100484.44;5075663;28;1108;-59
2022/04/18 11:36:53;;;;;;;;;;;;;;;17.15;46.35;100477.03;5076707;28;1068;-58
2022/04/18 11:39:18;;;;;;;;;;;;;;;17.06;46.45;100479.56;5058069;28;1078;-62
2022/04/18 11:41:44;;;;;;;;;;;;;;;17.09;46.54;100489.97;5076143;28;1906;-61
2022/04/18 11:44:10;;;;;;;;;;;;;;;17.07;46.30;100485.91;5076070;28;965;-59
2022/04/18 11:46:35;;;;;;;;;;;;;;;17.06;46.06;100487.81;5075465;28;1219;-58
2022/04/18 11:49:01;;;;;;;;;;;;;;;16.92;46.29;100489.53;5076026;28;1309;-58
2022/04/18 11:51:36;;;;;;;;;;;;;;;17.04;46.27;100490.03;5076340;28;1313;-60
2022/04/18 11:54:01;;;;;;;;;;;;;;;17.06;46.37;100487.00;5075598;28;1127;-60
2022/04/18 11:56:28;;;;;;;;;;;;;;;17.00;46.56;100485.34;5075178;28;1052;-60
2022/04/18 11:58:53;;;;;;;;;;;;;;;17.02;46.30;100483.97;5075893;28;1060;-59
2022/04/18 12:06:47;;;;;;;;;;;;;;;17.18;46.61;100489.38;5076408;28;774;-58
2022/04/18 12:09:14;;;;;;;;;;;;;;;17.22;46.56;100488.53;5057654;28;1157;-58
2022/04/18 12:11:39;;;;;;;;;;;;;;;17.20;46.30;100489.94;5076556;28;762;-61
2022/04/18 12:14:05;;;;;;;;;;;;;;;17.07;46.50;100474.91;5076783;28;779;-60
2022/04/18 12:16:32;;;;;;;;;;;;;;;17.19;46.40;100494.59;5076036;28;1038;-60
2022/04/18 12:18:57;;;;;;;;;;;;;;;17.22;46.56;100495.94;5076355;28;967;-60
2022/04/18 12:21:23;;;;;;;;;;;;;;;17.16;46.50;100491.59;5072879;28;905;-60
2022/04/18 12:23:55;;;;;;;;;;;;;;;17.13;46.49;100492.19;5075945;28;1905;-60
2022/04/18 12:26:23;;;;;;;;;;;;;;;17.12;46.50;100488.59;5076239;28;993;-59
2022/04/18 12:28:48;;;;;;;;;;;;;;;17.10;46.73;100488.88;5075774;28;814;-61
2022/04/18 12:31:14;;;;;;;;;;;;;;;17.18;46.41;100503.94;5054146;28;802;-60
2022/04/18 12:33:47;;;;;;;;;;;;;;;17.07;46.45;100494.94;5075864;28;1437;-60
2022/04/18 12:36:33;;;;;;;;;;;;;;;17.03;46.48;100493.88;5075770;28;834;-60
2022/04/18 12:38:59;;;;;;;;;;;;;;;17.00;46.30;100499.09;5076183;28;905;-61
2022/04/18 12:41:34;;;;;;;;;;;;;;;17.05;46.25;100491.63;5076026;28;762;-60
2022/04/18 12:44:00;;;;;;;;;;;;;;;17.04;46.56;100490.03;5076550;28;842;-59
2022/04/18 12:46:28;;;;;;;;;;;;;;;17.08;46.48;100498.50;5071950;28;893;-59
2022/04/18 12:48:54;;;;;;;;;;;;;;;17.29;46.50;100499.19;5076228;28;748;-59
2022/04/18 12:51:29;;;;;;;;;;;;;;;17.66;46.79;100489.59;5075601;28;1015;-60
2022/04/18 12:53:54;;;;;;;;;;;;;;;18.04;46.67;100505.50;5076150;28;814;-60
2022/04/18 12:56:21;;;;;;;;;;;;;;;18.30;46.45;100497.81;5075762;28;1171;-58
2022/04/18 12:59:06;;;;;;;;;;;;;;;18.52;46.20;100493.72;5072973;28;826;-60
2022/04/18 13:01:35;;;;;;;;;;;;;;;18.50;46.22;100493.19;5069340;28;1733;-60
2022/04/18 13:04:04;;;;;;;;;;;;;;;17.53;47.74;100485.56;5075499;28;849;-60
2022/04/18 13:06:33;;;;;;;;;;;;;;;17.31;46.66;100498.94;5076202;28;756;-62
2022/04/18 13:09:03;;;;;;;;;;;;;;;17.04;44.72;100500.16;5079643;28;892;-59
2022/04/18 13:11:38;;;;;;;;;;;;;;;16.81;42.96;100501.66;5078815;28;909;-60
2022/04/18 13:14:04;;;;;;;;;;;;;;;16.52;41.65;100502.31;5077635;28;1188;-59
2022/04/18 13:16:29;;;;;;;;;;;;;;;16.53;41.86;100503.94;5077944;28;1025;-60
2022/04/18 13:18:59;;;;;;;;;;;;;;;16.75;43.75;100496.16;5079506;28;780;-62
2022/04/18 13:21:24;;;;;;;;;;;;;;;17.09;46.03;100498.22;5079471;28;873;-62
2022/04/18 13:23:50;;;;;;;;;;;;;;;17.45;47.89;100500.72;5078046;28;1978;-62